createdAt,value
2018-09-01T00:00:50.096Z,21.49
2018-09-01T00:01:59.934Z,21.49
2018-09-01T00:03:10.049Z,21.56
2018-09-01T00:04:20.163Z,21.59
2018-09-01T00:05:30.255Z,21.52
2018-09-01T00:06:40.354Z,21.48
2018-09-01T00:07:50.443Z,21.56
2018-09-01T00:09:00.500Z,21.49
2018-09-01T00:10:10.317Z,21.58
2018-09-01T00:11:20.391Z,21.52
2018-09-01T00:12:30.707Z,21.49
2018-09-01T00:13:40.790Z,21.45
2018-09-01T00:14:50.870Z,21.34
2018-09-01T00:16:00.806Z,21.43
2018-09-01T00:17:10.967Z,21.43
2018-09-01T00:18:21.048Z,21.37
2018-09-01T00:19:31.142Z,21.43
2018-09-01T00:20:41.226Z,21.36
2018-09-01T00:21:51.295Z,21.43
2018-09-01T00:23:01.378Z,21.37
2018-09-01T00:24:11.207Z,21.38
2018-09-01T00:25:21.022Z,21.43
2018-09-01T00:26:31.094Z,21.38
2018-09-01T00:27:41.168Z,21.4
2018-09-01T00:28:51.246Z,21.43
2018-09-01T00:30:01.324Z,21.37
2018-09-01T00:31:11.395Z,21.45
2018-09-01T00:32:21.463Z,21.38
2018-09-01T00:33:31.555Z,21.41
2018-09-01T00:34:41.666Z,21.41
2018-09-01T00:35:51.743Z,21.34
2018-09-01T00:37:01.559Z,21.34
2018-09-01T00:38:11.367Z,21.37
2018-09-01T00:39:21.453Z,21.37
2018-09-01T00:40:31.311Z,21.37
2018-09-01T00:41:41.117Z,21.31
2018-09-01T00:42:50.654Z,21.31
2018-09-01T00:44:00.824Z,21.34
2018-09-01T00:45:10.910Z,21.33
2018-09-01T00:46:21.045Z,21.3
2018-09-01T00:47:31.096Z,21.3
2018-09-01T00:48:41.185Z,21.23
2018-09-01T00:49:51.264Z,21.33
2018-09-01T00:51:01.356Z,21.25
2018-09-01T00:52:11.426Z,21.25
2018-09-01T00:53:21.509Z,21.21
2018-09-01T00:54:31.599Z,21.21
2018-09-01T00:55:41.687Z,21.21
2018-09-01T00:56:51.762Z,21.18
2018-09-01T00:58:01.846Z,21.19
2018-09-01T00:59:11.937Z,21.27
2018-09-01T01:00:21.750Z,21.23
2018-09-01T01:01:31.821Z,21.25
2018-09-01T01:02:41.929Z,21.31
2018-09-01T01:03:52.006Z,21.36
2018-09-01T01:05:02.110Z,21.27
2018-09-01T01:06:12.191Z,21.28
2018-09-01T01:07:22.261Z,21.21
2018-09-01T01:08:32.072Z,21.25
2018-09-01T01:09:42.208Z,21.16
2018-09-01T01:10:52.286Z,21.27
2018-09-01T01:12:02.362Z,21.21
2018-09-01T01:13:12.163Z,21.18
2018-09-01T01:14:22.250Z,21.09
2018-09-01T01:15:32.316Z,20.93
2018-09-01T01:16:42.146Z,20.71
2018-09-01T01:17:52.224Z,20.46
2018-09-01T01:19:02.303Z,20.27
2018-09-01T01:20:12.379Z,20.19
2018-09-01T01:21:22.461Z,20.04
2018-09-01T01:22:32.276Z,20.1
2018-09-01T01:23:42.091Z,20
2018-09-01T01:24:52.180Z,19.97
2018-09-01T01:26:01.996Z,19.85
2018-09-01T01:27:12.046Z,19.75
2018-09-01T01:28:22.115Z,19.74
2018-09-01T01:29:32.192Z,19.72
2018-09-01T01:30:42.255Z,19.78
2018-09-01T01:31:52.327Z,19.68
2018-09-01T01:33:02.195Z,19.67
2018-09-01T01:34:12.263Z,19.57
2018-09-01T01:35:22.336Z,19.67
2018-09-01T01:36:31.877Z,19.63
2018-09-01T01:37:41.688Z,19.61
2018-09-01T01:38:51.815Z,19.64
2018-09-01T01:40:01.617Z,19.63
2018-09-01T01:41:11.696Z,19.63
2018-09-01T01:42:21.762Z,19.65
2018-09-01T01:43:31.828Z,19.71
2018-09-01T01:44:41.894Z,19.64
2018-09-01T01:45:51.718Z,19.74
2018-09-01T01:47:01.839Z,19.75
2018-09-01T01:48:11.669Z,19.79
2018-09-01T01:49:21.468Z,19.8
2018-09-01T01:50:31.300Z,19.75
2018-09-01T01:51:41.110Z,19.79
2018-09-01T01:52:51.168Z,19.79
2018-09-01T01:54:00.980Z,19.74
2018-09-01T01:55:11.040Z,19.78
2018-09-01T01:56:21.122Z,19.74
2018-09-01T01:57:31.213Z,19.78
2018-09-01T01:58:41.293Z,19.65
2018-09-01T01:59:51.360Z,19.65
2018-09-01T02:01:01.435Z,19.67
2018-09-01T02:02:11.571Z,19.65
2018-09-01T02:03:21.643Z,19.64
2018-09-01T02:04:31.445Z,19.65
2018-09-01T02:05:41.522Z,19.5
2018-09-01T02:06:51.604Z,19.53
2018-09-01T02:08:01.727Z,19.64
2018-09-01T02:09:11.805Z,19.56
2018-09-01T02:10:21.895Z,19.64
2018-09-01T02:11:31.966Z,19.53
2018-09-01T02:12:42.045Z,19.52
2018-09-01T02:13:51.908Z,19.63
2018-09-01T02:15:01.723Z,19.56
2018-09-01T02:16:11.792Z,19.53
2018-09-01T02:17:21.621Z,19.56
2018-09-01T02:18:31.224Z,19.57
2018-09-01T02:19:41.460Z,19.67
2018-09-01T02:20:51.287Z,19.52
2018-09-01T02:22:01.369Z,19.52
2018-09-01T02:23:11.431Z,19.46
2018-09-01T02:24:21.494Z,19.45
2018-09-01T02:25:31.357Z,19.47
2018-09-01T02:26:41.164Z,19.47
2018-09-01T02:27:51.238Z,19.4
2018-09-01T02:29:01.095Z,19.43
2018-09-01T02:30:11.219Z,19.38
2018-09-01T02:31:21.288Z,19.37
2018-09-01T02:32:31.351Z,19.3
2018-09-01T02:33:41.420Z,19.34
2018-09-01T02:34:51.489Z,19.25
2018-09-01T02:36:01.572Z,19.31
2018-09-01T02:37:11.184Z,19.23
2018-09-01T02:38:21.045Z,19.23
2018-09-01T02:39:31.131Z,19.27
2018-09-01T02:40:41.216Z,19.24
2018-09-01T02:41:51.040Z,19.3
2018-09-01T02:43:01.223Z,19.3
2018-09-01T02:44:11.327Z,19.37
2018-09-01T02:45:21.135Z,19.32
2018-09-01T02:46:31.203Z,19.35
2018-09-01T02:47:41.269Z,19.34
2018-09-01T02:48:51.394Z,19.24
2018-09-01T02:50:01.208Z,19.2
2018-09-01T02:51:11.057Z,19.17
2018-09-01T02:52:20.861Z,19.13
2018-09-01T02:53:30.683Z,19.06
2018-09-01T02:54:40.556Z,19.13
2018-09-01T02:55:50.630Z,19.1
2018-09-01T02:57:00.698Z,19.02
2018-09-01T02:58:10.510Z,19
2018-09-01T02:59:20.640Z,18.99
2018-09-01T03:00:30.712Z,18.94
2018-09-01T03:01:40.798Z,18.97
2018-09-01T03:34:43.837Z,17.46
2018-09-01T03:35:53.647Z,17.38
2018-09-01T03:37:03.712Z,17.4
2018-09-01T03:38:13.773Z,17.35
2018-09-01T03:39:23.849Z,17.39
2018-09-01T03:40:33.972Z,17.43
2018-09-01T03:41:44.038Z,17.43
2018-09-01T03:42:53.577Z,17.45
2018-09-01T03:44:03.644Z,17.52
2018-09-01T03:45:13.713Z,17.63
2018-09-01T03:46:23.590Z,17.71
2018-09-01T03:47:33.409Z,17.63
2018-09-01T03:48:43.517Z,17.74
2018-09-01T03:49:53.592Z,17.84
2018-09-01T03:51:03.681Z,17.88
2018-09-01T03:52:13.751Z,18.02
2018-09-01T03:53:23.561Z,18.06
2018-09-01T03:54:33.644Z,18.11
2018-09-01T03:55:43.702Z,18.11
2018-09-01T03:56:53.773Z,18.11
2018-09-01T03:58:03.943Z,18.08
2018-09-01T03:59:14.009Z,18.13
2018-09-01T04:00:24.098Z,18.13
2018-09-01T04:01:34.164Z,18.06
2018-09-01T04:02:43.971Z,18.08
2018-09-01T04:03:53.783Z,18.11
2018-09-01T04:05:03.860Z,18.08
2018-09-01T04:06:13.935Z,18.14
2018-09-01T04:07:23.747Z,18.19
2018-09-01T04:08:33.823Z,18.19
2018-09-01T04:09:43.943Z,18.14
2018-09-01T04:10:54.023Z,18.19
2018-09-01T04:12:03.824Z,18.19
2018-09-01T04:13:13.905Z,18.08
2018-09-01T04:14:23.959Z,18.1
2018-09-01T04:15:34.079Z,18.06
2018-09-01T04:16:44.138Z,18.13
2018-09-01T04:17:54.232Z,18.06
2018-09-01T04:19:04.294Z,18.05
2018-09-01T04:20:14.365Z,18.1
2018-09-01T04:21:24.447Z,18.08
2018-09-01T04:22:34.509Z,18.14
2018-09-01T04:23:44.579Z,18.2
2018-09-01T04:24:54.391Z,18.17
2018-09-01T04:26:04.214Z,18.2
2018-09-01T04:27:14.027Z,18.17
2018-09-01T04:28:24.101Z,18.14
2018-09-01T04:29:33.647Z,18.2
2018-09-01T04:30:43.708Z,18.21
2018-09-01T04:31:53.949Z,18.16
2018-09-01T04:33:04.185Z,18.2
2018-09-01T04:34:14.001Z,18.24
2018-09-01T04:35:24.074Z,18.13
2018-09-01T04:36:34.147Z,18.19
2018-09-01T04:37:44.225Z,18.16
2018-09-01T04:38:54.352Z,18.11
2018-09-01T04:40:04.153Z,18.19
2018-09-01T04:41:14.248Z,18.19
2018-09-01T04:42:24.315Z,18.14
2018-09-01T04:43:34.398Z,18.16
2018-09-01T04:44:44.474Z,18.11
2018-09-01T04:45:54.553Z,18.2
2018-09-01T04:47:04.587Z,18.19
2018-09-01T04:48:14.885Z,18.2
2018-09-01T04:49:24.958Z,18.24
2018-09-01T04:50:34.862Z,18.19
2018-09-01T04:51:44.682Z,18.11
2018-09-01T04:52:54.500Z,18.16
2018-09-01T04:54:04.565Z,18.16
2018-09-01T04:55:14.640Z,18.14
2018-09-01T04:56:24.710Z,18.14
2018-09-01T04:57:34.787Z,18.23
2018-09-01T04:58:44.595Z,18.23
2018-09-01T04:59:54.666Z,18.23
2018-09-01T05:01:05.181Z,18.23
2018-09-01T05:02:15.149Z,18.2
2018-09-01T05:03:25.223Z,18.19
2018-09-01T05:04:35.331Z,18.16
2018-09-01T05:05:45.149Z,18.29
2018-09-01T05:06:55.266Z,18.19
2018-09-01T05:08:05.230Z,18.16
2018-09-01T05:09:15.049Z,18.23
2018-09-01T05:10:25.122Z,18.26
2018-09-01T05:11:35.222Z,18.27
2018-09-01T05:12:45.279Z,18.39
2018-09-01T05:13:55.339Z,18.31
2018-09-01T05:15:05.658Z,18.26
2018-09-01T05:16:15.463Z,18.26
2018-09-01T05:17:25.557Z,18.26
2018-09-01T05:18:35.627Z,18.39
2018-09-01T05:19:45.764Z,18.35
2018-09-01T05:20:55.819Z,18.31
2018-09-01T05:22:05.882Z,18.36
2018-09-01T05:23:15.939Z,18.35
2018-09-01T05:24:26.028Z,18.35
2018-09-01T05:25:35.856Z,18.19
2018-09-01T05:26:45.949Z,18.23
2018-09-01T05:27:56.035Z,18.31
2018-09-01T05:29:05.835Z,18.2
2018-09-01T05:30:15.397Z,18.16
2018-09-01T05:31:25.469Z,18.16
2018-09-01T05:32:35.535Z,18.21
2018-09-01T05:33:45.344Z,18.17
2018-09-01T05:34:55.153Z,18.27
2018-09-01T05:36:05.232Z,18.31
2018-09-01T05:37:15.069Z,18.2
2018-09-01T05:38:25.137Z,18.17
2018-09-01T05:39:35.229Z,18.17
2018-09-01T05:40:45.311Z,18.34
2018-09-01T05:41:55.120Z,18.24
2018-09-01T05:43:05.242Z,18.31
2018-09-01T05:44:15.087Z,18.27
2018-09-01T05:45:25.225Z,18.35
2018-09-01T05:46:35.040Z,18.27
2018-09-01T05:47:45.125Z,18.32
2018-09-01T05:48:54.688Z,18.26
2018-09-01T05:50:04.762Z,18.23
2018-09-01T05:51:14.856Z,18.16
2018-09-01T05:52:24.948Z,18.17
2018-09-01T05:53:35.033Z,18.16
2018-09-01T05:54:44.850Z,18.16
2018-09-01T05:55:54.927Z,18.2
2018-09-01T05:57:05.642Z,18.17
2018-09-01T05:58:15.709Z,18.16
2018-09-01T05:59:25.787Z,18.23
2018-09-01T06:00:35.507Z,18.19
2018-09-01T06:01:45.897Z,18.26
2018-09-01T06:02:55.981Z,18.26
2018-09-01T06:04:05.794Z,18.13
2018-09-01T06:05:15.880Z,18.23
2018-09-01T06:06:26.275Z,18.16
2018-09-01T06:07:36.666Z,18.34
2018-09-01T06:08:46.727Z,18.21
2018-09-01T06:09:56.803Z,18.16
2018-09-01T06:11:06.875Z,18.23
2018-09-01T06:12:16.952Z,18.26
2018-09-01T06:13:27.029Z,18.31
2018-09-01T06:14:36.591Z,18.31
2018-09-01T06:15:46.677Z,18.32
2018-09-01T06:16:56.521Z,18.29
2018-09-01T06:18:06.987Z,18.19
2018-09-01T06:19:17.393Z,18.24
2018-09-01T06:20:27.756Z,18.24
2018-09-01T06:21:37.577Z,18.16
2018-09-01T06:22:47.646Z,18.29
2018-09-01T06:23:57.823Z,18.17
2018-09-01T06:25:08.333Z,18.13
2018-09-01T06:26:18.416Z,18.23
2018-09-01T06:27:28.235Z,18.23
2018-09-01T06:28:38.300Z,18.21
2018-09-01T06:29:48.388Z,18.17
2018-09-01T06:30:58.456Z,18.2
2018-09-01T06:32:08.516Z,18.26
2018-09-01T06:33:18.660Z,18.31
2018-09-01T06:34:28.487Z,18.19
2018-09-01T06:35:38.600Z,18.2
2018-09-01T06:36:48.687Z,18.14
2018-09-01T06:37:58.775Z,18.16
2018-09-01T06:39:08.848Z,18.19
2018-09-01T06:40:18.937Z,18.32
2018-09-01T06:41:28.760Z,18.19
2018-09-01T06:42:38.605Z,18.31
2018-09-01T06:43:48.798Z,18.21
2018-09-01T06:44:58.631Z,18.27
2018-09-01T06:46:08.737Z,18.35
2018-09-01T06:47:18.856Z,18.16
2018-09-01T06:48:28.926Z,18.2
2018-09-01T06:49:38.750Z,18.13
2018-09-01T06:50:48.835Z,18.17
2018-09-01T06:51:58.924Z,18.23
2018-09-01T06:53:09.000Z,18.26
2018-09-01T06:54:19.069Z,18.14
2018-09-01T06:55:29.180Z,18.16
2018-09-01T06:56:38.996Z,18.17
2018-09-01T06:57:49.061Z,18.21
2018-09-01T06:58:59.136Z,18.26
2018-09-01T07:00:09.268Z,18.21
2018-09-01T07:01:19.352Z,18.24
2018-09-01T07:02:29.445Z,18.26
2018-09-01T07:03:39.539Z,18.16
2018-09-01T07:04:50.227Z,18.27
2018-09-01T07:06:00.062Z,18.29
2018-09-01T07:07:10.374Z,18.26
2018-09-01T07:08:20.474Z,18.38
2018-09-01T07:09:30.581Z,18.27
2018-09-01T07:10:40.462Z,18.29
2018-09-01T07:11:50.561Z,18.36
2018-09-01T07:13:00.649Z,18.45
2018-09-01T07:14:10.729Z,18.34
2018-09-01T07:15:20.547Z,18.38
2018-09-01T07:16:30.663Z,18.35
2018-09-01T07:17:40.479Z,18.31
2018-09-01T07:18:50.362Z,18.26
2018-09-01T07:20:00.463Z,18.26
2018-09-01T07:21:10.308Z,18.23
2018-09-01T07:22:20.376Z,18.24
2018-09-01T07:23:30.238Z,18.24
2018-09-01T07:24:40.336Z,18.24
2018-09-01T07:25:50.392Z,18.16
2018-09-01T07:27:00.471Z,18.17
2018-09-01T07:28:10.344Z,18.24
2018-09-01T07:29:20.418Z,18.23
2018-09-01T07:30:31.145Z,18.16
2018-09-01T07:31:42.174Z,18.14
2018-09-01T07:32:52.004Z,18.17
2018-09-01T07:34:02.093Z,18.16
2018-09-01T07:35:11.906Z,18.2
2018-09-01T07:36:21.995Z,18.24
2018-09-01T07:37:31.567Z,18.31
2018-09-01T07:38:41.654Z,18.34
2018-09-01T07:39:51.795Z,18.26
2018-09-01T07:41:01.398Z,18.29
2018-09-01T07:42:11.484Z,18.34
2018-09-01T07:43:21.036Z,18.36
2018-09-01T07:44:31.112Z,18.47
2018-09-01T07:45:40.924Z,18.44
2018-09-01T07:46:50.985Z,18.49
2018-09-01T07:48:00.786Z,18.41
2018-09-01T07:49:10.882Z,18.5
2018-09-01T07:50:20.972Z,18.53
2018-09-01T07:51:30.549Z,18.51
2018-09-01T07:52:40.362Z,18.63
2018-09-01T07:53:50.468Z,18.63
2018-09-01T07:55:00.689Z,18.63
2018-09-01T07:56:11.225Z,18.66
2018-09-01T07:57:21.417Z,18.71
2018-09-01T07:58:31.238Z,18.74
2018-09-01T07:59:41.075Z,18.72
2018-09-01T08:00:51.154Z,18.82
2018-09-01T08:02:01.279Z,18.91
2018-09-01T08:03:11.421Z,18.9
2018-09-01T08:04:21.538Z,18.97
2018-09-01T08:05:31.350Z,19
2018-09-01T08:06:41.508Z,19.09
2018-09-01T08:07:51.617Z,19.28
2018-09-01T08:09:01.511Z,19.3
2018-09-01T08:10:11.588Z,19.46
2018-09-01T08:11:21.402Z,19.46
2018-09-01T08:12:31.485Z,19.68
2018-09-01T08:13:41.750Z,19.72
2018-09-01T08:14:51.818Z,19.78
2018-09-01T08:16:01.896Z,19.78
2018-09-01T08:17:12.013Z,19.89
2018-09-01T08:18:21.314Z,19.97
2018-09-01T08:19:31.133Z,20.04
2018-09-01T08:20:41.005Z,20.1
2018-09-01T08:21:50.818Z,20.1
2018-09-01T08:23:00.901Z,20.05
2018-09-01T08:24:10.999Z,20.15
2018-09-01T08:25:20.844Z,20.23
2018-09-01T08:26:31.024Z,20.29
2018-09-01T08:27:40.588Z,20.32
2018-09-01T08:28:50.697Z,20.35
2018-09-01T08:30:00.782Z,20.46
2018-09-01T08:31:11.116Z,20.54
2018-09-01T08:32:21.266Z,20.48
2018-09-01T08:33:31.504Z,20.63
2018-09-01T08:34:41.735Z,20.68
2018-09-01T08:35:51.820Z,20.78
2018-09-01T08:37:01.904Z,21.03
2018-09-01T08:38:12.059Z,21.22
2018-09-01T08:39:22.207Z,21.45
2018-09-01T08:40:32.030Z,21.64
2018-09-01T08:41:41.895Z,21.82
2018-09-01T08:42:51.966Z,21.96
2018-09-01T08:44:02.103Z,22.23
2018-09-01T08:45:12.299Z,22.27
2018-09-01T08:46:22.201Z,22.36
2018-09-01T08:47:32.269Z,22.57
2018-09-01T08:48:42.374Z,22.71
2018-09-01T08:49:52.458Z,22.96
2018-09-01T08:51:02.549Z,23.16
2018-09-01T08:52:12.640Z,23.35
2018-09-01T08:53:22.720Z,23.57
2018-09-01T08:54:32.825Z,23.87
2018-09-01T08:55:42.631Z,24.14
2018-09-01T08:56:52.707Z,24.46
2018-09-01T08:58:02.804Z,24.82
2018-09-01T08:59:12.893Z,24.9
2018-09-01T09:00:22.970Z,25
2018-09-01T09:01:33.134Z,25.07
2018-09-01T09:02:43.222Z,25.11
2018-09-01T09:03:53.321Z,25.12
2018-09-01T09:05:03.399Z,25.15
2018-09-01T09:06:13.492Z,25.04
2018-09-01T09:07:23.587Z,25
2018-09-01T09:08:33.416Z,24.96
2018-09-01T09:09:43.514Z,25.19
2018-09-01T09:10:53.602Z,25.41
2018-09-01T09:12:03.707Z,25.63
2018-09-01T09:13:13.805Z,25.91
2018-09-01T09:14:23.904Z,25.94
2018-09-01T09:15:33.996Z,25.71
2018-09-01T09:16:44.092Z,25.79
2018-09-01T09:17:53.649Z,25.71
2018-09-01T09:19:03.826Z,25.63
2018-09-01T09:20:13.916Z,25.56
2018-09-01T09:21:24.069Z,25.41
2018-09-01T09:22:33.895Z,25.24
2018-09-01T09:23:43.971Z,25.2
2018-09-01T09:24:53.845Z,25.02
2018-09-01T09:26:03.981Z,25.02
2018-09-01T09:27:13.807Z,25.01
2018-09-01T09:28:23.640Z,25.04
2018-09-01T09:29:33.457Z,24.94
2018-09-01T09:30:43.328Z,25.09
2018-09-01T09:31:53.413Z,25.02
2018-09-01T09:33:03.485Z,25
2018-09-01T09:34:13.571Z,25.17
2018-09-01T09:35:23.666Z,25.14
2018-09-01T09:36:33.792Z,25.24
2018-09-01T09:37:43.901Z,25.11
2018-09-01T09:38:54.014Z,25.15
2018-09-01T09:40:03.825Z,25.15
2018-09-01T09:41:13.658Z,25.27
2018-09-01T09:42:23.772Z,25.37
2018-09-01T09:43:33.867Z,25.51
2018-09-01T09:44:44.094Z,25.59
2018-09-01T09:45:54.191Z,25.84
2018-09-01T09:47:04.262Z,25.85
2018-09-01T09:48:14.386Z,25.94
2018-09-01T09:49:24.237Z,26.03
2018-09-01T09:50:34.325Z,26.11
2018-09-01T09:51:44.420Z,26.17
2018-09-01T09:52:54.600Z,26.17
2018-09-01T09:54:04.501Z,26.15
2018-09-01T09:55:14.341Z,26.07
2018-09-01T09:56:24.440Z,26.11
2018-09-01T09:57:34.006Z,26.15
2018-09-01T09:58:43.837Z,26.22
2018-09-01T09:59:54.002Z,26.16
2018-09-01T10:01:04.364Z,26
2018-09-01T10:02:14.743Z,25.99
2018-09-01T10:03:24.851Z,25.99
2018-09-01T10:04:34.987Z,25.84
2018-09-01T10:05:45.248Z,25.75
2018-09-01T10:06:55.381Z,25.69
2018-09-01T10:08:05.311Z,25.49
2018-09-01T10:09:15.403Z,25.49
2018-09-01T10:10:25.242Z,25.54
2018-09-01T10:11:35.341Z,25.47
2018-09-01T10:12:45.174Z,25.62
2018-09-01T10:13:55.494Z,25.71
2018-09-01T10:15:05.688Z,25.75
2018-09-01T10:16:15.796Z,25.85
2018-09-01T10:17:25.940Z,25.97
2018-09-01T10:18:36.068Z,26.16
2018-09-01T10:19:46.192Z,26.24
2018-09-01T10:20:56.317Z,26.32
2018-09-01T10:22:06.140Z,26.49
2018-09-01T10:23:16.248Z,26.76
2018-09-01T10:24:26.328Z,26.9
2018-09-01T10:25:36.432Z,27.09
2018-09-01T10:26:46.383Z,27.27
2018-09-01T10:27:56.595Z,27.49
2018-09-01T10:29:06.867Z,27.75
2018-09-01T10:30:16.972Z,27.99
2018-09-01T10:31:27.071Z,28.16
2018-09-01T10:32:36.914Z,28.3
2018-09-01T10:33:46.745Z,28.48
2018-09-01T10:34:56.692Z,28.63
2018-09-01T10:36:06.811Z,28.9
2018-09-01T10:37:16.633Z,29.08
2018-09-01T10:38:26.858Z,29.38
2018-09-01T10:39:37.360Z,29.67
2018-09-01T10:40:47.543Z,29.66
2018-09-01T10:41:57.678Z,29.73
2018-09-01T10:43:07.568Z,29.88
2018-09-01T10:44:17.781Z,29.88
2018-09-01T10:45:27.910Z,29.91
2018-09-01T10:46:38.070Z,29.73
2018-09-01T10:47:48.180Z,29.57
2018-09-01T10:48:58.321Z,29.36
2018-09-01T10:50:08.404Z,29.18
2018-09-01T10:51:18.498Z,28.97
2018-09-01T10:52:28.425Z,28.85
2018-09-01T10:53:38.306Z,28.67
2018-09-01T10:54:48.393Z,28.65
2018-09-01T10:55:58.477Z,28.9
2018-09-01T10:57:08.341Z,29.06
2018-09-01T10:58:18.485Z,29.1
2018-09-01T10:59:29.076Z,29.26
2018-09-01T11:00:39.832Z,29.15
2018-09-01T11:01:49.961Z,28.98
2018-09-01T11:03:00.088Z,28.9
2018-09-01T11:04:10.106Z,28.8
2018-09-01T11:05:20.200Z,28.85
2018-09-01T11:06:30.100Z,28.7
2018-09-01T11:07:40.199Z,28.68
2018-09-01T11:08:50.036Z,28.61
2018-09-01T11:10:01.027Z,28.63
2018-09-01T11:11:10.892Z,28.54
2018-09-01T11:12:20.996Z,28.41
2018-09-01T11:13:31.104Z,28.27
2018-09-01T11:14:41.212Z,28.09
2018-09-01T11:15:51.400Z,28.01
2018-09-01T11:17:01.529Z,28.02
2018-09-01T11:18:11.645Z,28.05
2018-09-01T11:19:21.745Z,28.11
2018-09-01T11:20:31.890Z,28.3
2018-09-01T11:21:42.211Z,28.46
2018-09-01T11:22:52.485Z,28.79
2018-09-01T11:24:02.599Z,29.35
2018-09-01T11:25:12.433Z,29.66
2018-09-01T11:26:22.572Z,29.54
2018-09-01T11:27:32.428Z,29.51
2018-09-01T11:28:42.830Z,29.52
2018-09-01T11:29:52.672Z,29.66
2018-09-01T11:31:03.356Z,29.77
2018-09-01T11:32:13.459Z,29.95
2018-09-01T11:33:23.544Z,29.87
2018-09-01T11:34:33.575Z,29.58
2018-09-01T11:35:43.562Z,29.33
2018-09-01T11:36:54.008Z,29.2
2018-09-01T11:38:04.372Z,29.03
2018-09-01T11:39:14.202Z,28.86
2018-09-01T11:40:24.393Z,28.68
2018-09-01T11:41:34.765Z,28.55
2018-09-01T11:42:45.372Z,28.46
2018-09-01T11:43:55.052Z,28.31
2018-09-01T11:45:05.152Z,28.35
2018-09-01T11:46:15.303Z,28.3
2018-09-01T11:47:25.420Z,28.23
2018-09-01T11:48:35.707Z,28.18
2018-09-01T11:49:45.983Z,28.2
2018-09-01T11:50:56.164Z,28.21
2018-09-01T11:52:06.308Z,28.21
2018-09-01T11:53:17.467Z,28.28
2018-09-01T11:54:28.050Z,28.42
2018-09-01T11:55:38.159Z,28.55
2018-09-01T11:56:48.254Z,28.8
2018-09-01T11:57:58.105Z,28.75
2018-09-01T11:59:07.933Z,28.75
2018-09-01T12:00:18.068Z,28.86
2018-09-01T12:01:28.184Z,29.02
2018-09-01T12:02:38.308Z,29.08
2018-09-01T12:03:48.443Z,29.24
2018-09-01T12:04:58.578Z,29.35
2018-09-01T12:06:08.469Z,29.42
2018-09-01T12:07:18.406Z,29.45
2018-09-01T12:08:28.489Z,29.52
2018-09-01T12:09:38.587Z,29.52
2018-09-01T12:10:48.689Z,29.48
2018-09-01T12:11:58.938Z,29.45
2018-09-01T12:13:09.198Z,29.48
2018-09-01T12:14:19.047Z,29.28
2018-09-01T12:15:28.896Z,29.39
2018-09-01T12:16:38.995Z,29.38
2018-09-01T12:17:49.081Z,29.43
2018-09-01T12:18:59.179Z,29.52
2018-09-01T12:20:09.310Z,29.63
2018-09-01T12:21:19.424Z,29.72
2018-09-01T12:22:29.362Z,29.72
2018-09-01T12:23:39.207Z,29.77
2018-09-01T12:24:49.326Z,29.7
2018-09-01T12:25:59.439Z,29.6
2018-09-01T12:27:09.540Z,29.45
2018-09-01T12:28:20.468Z,29.43
2018-09-01T12:29:31.084Z,29.13
2018-09-01T12:30:41.199Z,28.9
2018-09-01T12:31:51.329Z,28.64
2018-09-01T12:33:01.449Z,28.28
2018-09-01T12:34:11.560Z,27.99
2018-09-01T12:35:22.040Z,27.64
2018-09-01T12:36:32.383Z,27.23
2018-09-01T12:37:42.219Z,26.94
2018-09-01T12:38:52.042Z,26.78
2018-09-01T12:40:01.870Z,26.61
2018-09-01T12:41:11.773Z,26.38
2018-09-01T12:42:21.874Z,26.27
2018-09-01T12:43:31.975Z,26.16
2018-09-01T12:44:42.090Z,26.06
2018-09-01T12:45:51.671Z,25.84
2018-09-01T12:47:01.767Z,25.74
2018-09-01T12:48:11.852Z,25.56
2018-09-01T12:49:21.948Z,25.29
2018-09-01T12:50:32.067Z,25.05
2018-09-01T12:51:42.158Z,24.82
2018-09-01T12:52:52.021Z,24.48
2018-09-01T12:54:01.867Z,24.12
2018-09-01T12:55:12.254Z,23.99
2018-09-01T12:56:22.066Z,23.75
2018-09-01T12:57:31.919Z,23.5
2018-09-01T12:58:41.947Z,23.21
2018-09-01T12:59:52.045Z,23.01
2018-09-01T13:01:02.155Z,22.78
2018-09-01T13:02:12.004Z,22.69
2018-09-01T13:03:22.088Z,22.46
2018-09-01T13:04:32.229Z,22.27
2018-09-01T13:05:42.409Z,22.18
2018-09-01T13:06:52.496Z,21.94
2018-09-01T13:08:02.958Z,21.92
2018-09-01T13:09:13.435Z,21.83
2018-09-01T13:10:23.580Z,21.61
2018-09-01T13:11:33.693Z,21.64
2018-09-01T13:12:43.773Z,21.46
2018-09-01T13:13:53.902Z,21.3
2018-09-01T13:15:03.726Z,21.16
2018-09-01T13:16:13.854Z,21.09
2018-09-01T13:17:23.434Z,21.04
2018-09-01T13:18:33.540Z,20.96
2018-09-01T13:19:43.651Z,20.86
2018-09-01T13:20:53.868Z,20.82
2018-09-01T13:22:03.697Z,20.83
2018-09-01T13:23:13.818Z,20.72
2018-09-01T13:24:23.913Z,20.66
2018-09-01T13:25:34.419Z,20.66
2018-09-01T13:26:44.538Z,20.64
2018-09-01T13:27:54.610Z,20.61
2018-09-01T13:29:04.706Z,20.51
2018-09-01T13:30:14.638Z,20.56
2018-09-01T13:31:24.772Z,20.64
2018-09-01T13:32:34.629Z,20.61
2018-09-01T13:33:44.792Z,20.66
2018-09-01T13:34:54.919Z,20.68
2018-09-01T13:36:05.048Z,20.81
2018-09-01T13:37:15.121Z,20.94
2018-09-01T13:38:25.238Z,21.04
2018-09-01T13:39:35.557Z,21.13
2018-09-01T13:40:45.388Z,21.25
2018-09-01T13:41:55.244Z,21.22
2018-09-01T13:43:05.110Z,21.48
2018-09-01T13:44:15.193Z,21.48
2018-09-01T13:45:25.361Z,21.55
2018-09-01T13:46:35.693Z,21.61
2018-09-01T13:47:45.841Z,21.53
2018-09-01T13:48:55.692Z,21.61
2018-09-01T13:50:05.782Z,21.67
2018-09-01T13:51:15.895Z,21.77
2018-09-01T13:52:25.995Z,21.85
2018-09-01T13:53:36.095Z,21.96
2018-09-01T13:54:46.224Z,22.08
2018-09-01T13:55:56.319Z,22.14
2018-09-01T13:57:06.529Z,22.16
2018-09-01T13:58:16.690Z,22.27
2018-09-01T13:59:26.795Z,22.27
2018-09-01T14:00:36.867Z,22.31
2018-09-01T14:01:46.980Z,22.29
2018-09-01T14:02:57.069Z,22.2
2018-09-01T14:04:06.903Z,22.09
2018-09-01T14:05:16.997Z,22.09
2018-09-01T14:06:27.321Z,22.02
2018-09-01T14:07:36.907Z,21.99
2018-09-01T14:08:47.172Z,21.96
2018-09-01T14:09:57.276Z,21.92
2018-09-01T14:11:07.383Z,21.94
2018-09-01T14:12:17.537Z,21.85
2018-09-01T14:13:27.841Z,21.76
2018-09-01T14:14:38.543Z,21.66
2018-09-01T14:15:49.411Z,21.58
2018-09-01T14:16:59.245Z,21.59
2018-09-01T14:18:09.343Z,21.45
2018-09-01T14:19:19.161Z,21.36
2018-09-01T14:20:29.329Z,21.36
2018-09-01T14:21:39.688Z,21.25
2018-09-01T14:22:49.789Z,21.18
2018-09-01T14:23:59.884Z,21.18
2018-09-01T14:25:10.449Z,21.21
2018-09-01T14:26:20.616Z,21.06
2018-09-01T14:27:30.446Z,21.11
2018-09-01T14:28:40.540Z,21.12
2018-09-01T14:29:50.644Z,21.11
2018-09-01T14:31:00.987Z,21.12
2018-09-01T14:32:12.139Z,21.04
2018-09-01T14:33:22.254Z,21.06
2018-09-01T14:34:32.346Z,21.11
2018-09-01T14:35:42.502Z,21.09
2018-09-01T14:36:52.633Z,21.03
2018-09-01T14:38:03.251Z,21.03
2018-09-01T14:39:13.371Z,21.01
2018-09-01T14:40:23.224Z,20.96
2018-09-01T14:41:33.347Z,20.93
2018-09-01T14:42:43.200Z,20.94
2018-09-01T14:43:53.085Z,20.85
2018-09-01T14:45:03.206Z,20.81
2018-09-01T14:46:13.320Z,20.82
2018-09-01T14:47:23.664Z,20.71
2018-09-01T14:48:34.137Z,20.72
2018-09-01T14:49:43.968Z,20.61
2018-09-01T14:50:54.058Z,20.49
2018-09-01T14:52:04.200Z,20.44
2018-09-01T14:53:14.212Z,20.48
2018-09-01T14:54:24.681Z,20.4
2018-09-01T14:55:34.834Z,20.35
2018-09-01T14:56:44.950Z,20.32
2018-09-01T14:57:55.040Z,20.29
2018-09-01T14:59:05.808Z,20.26
2018-09-01T15:00:16.042Z,20.27
2018-09-01T15:01:26.163Z,20.34
2018-09-01T15:02:36.238Z,20.26
2018-09-01T15:03:46.361Z,20.23
2018-09-01T15:04:56.224Z,20.23
2018-09-01T15:06:06.318Z,20.22
2018-09-01T15:07:16.689Z,20.2
2018-09-01T15:08:26.545Z,20.18
2018-09-01T15:09:36.649Z,20.19
2018-09-01T15:10:46.799Z,20.18
2018-09-01T15:11:56.919Z,20.29
2018-09-01T15:13:07.032Z,20.32
2018-09-01T15:14:16.632Z,20.29
2018-09-01T15:15:26.739Z,20.27
2018-09-01T15:16:36.876Z,20.29
2018-09-01T15:17:46.970Z,20.23
2018-09-01T15:18:57.056Z,20.27
2018-09-01T15:20:07.189Z,20.3
2018-09-01T15:21:16.784Z,20.34
2018-09-01T15:22:26.652Z,20.38
2018-09-01T15:23:36.800Z,20.34
2018-09-01T15:24:46.914Z,20.42
2018-09-01T15:25:57.036Z,20.51
2018-09-01T15:27:06.875Z,20.53
2018-09-01T15:28:16.730Z,20.58
2018-09-01T15:29:26.607Z,20.64
2018-09-01T15:30:36.793Z,20.67
2018-09-01T15:31:46.912Z,20.66
2018-09-01T15:32:57.019Z,20.67
2018-09-01T15:34:07.117Z,20.66
2018-09-01T15:35:17.368Z,20.61
2018-09-01T15:36:27.719Z,20.71
2018-09-01T15:37:37.828Z,20.72